sensor_id;sensor_type;location;lat;lon;timestamp;pressure;altitude;pressure_sealevel;temperature;humidity
16331;BME280;8275;48.206;16.340;2022-10-16T00:00:02;99454.53;;;18.19;59.61
16331;BME280;8275;48.206;16.340;2022-10-16T00:02:32;99453.13;;;18.22;59.71
16331;BME280;8275;48.206;16.340;2022-10-16T00:05:01;99456.94;;;18.26;59.99
16331;BME280;8275;48.206;16.340;2022-10-16T00:07:29;99457.69;;;18.32;60.02
16331;BME280;8275;48.206;16.340;2022-10-16T00:09:58;99450.91;;;18.38;60.01
16331;BME280;8275;48.206;16.340;2022-10-16T00:12:26;99458.03;;;18.44;60.23
16331;BME280;8275;48.206;16.340;2022-10-16T00:14:54;99456.84;;;18.50;60.10
16331;BME280;8275;48.206;16.340;2022-10-16T00:17:23;99458.94;;;18.58;60.17
16331;BME280;8275;48.206;16.340;2022-10-16T00:19:52;99449.38;;;18.64;60.18
16331;BME280;8275;48.206;16.340;2022-10-16T00:22:21;99455.69;;;18.69;60.10
16331;BME280;8275;48.206;16.340;2022-10-16T00:24:50;99453.31;;;18.76;60.10
16331;BME280;8275;48.206;16.340;2022-10-16T00:27:18;99453.53;;;18.80;60.08
16331;BME280;8275;48.206;16.340;2022-10-16T00:29:49;99451.78;;;18.84;59.97
16331;BME280;8275;48.206;16.340;2022-10-16T00:32:18;99445.31;;;18.88;60.03
16331;BME280;8275;48.206;16.340;2022-10-16T00:34:47;99451.88;;;18.92;60.01
16331;BME280;8275;48.206;16.340;2022-10-16T00:37:17;99449.84;;;18.98;60.12
16331;BME280;8275;48.206;16.340;2022-10-16T00:39:45;99456.16;;;19.04;60.05
16331;BME280;8275;48.206;16.340;2022-10-16T00:42:16;99460.78;;;19.08;59.96
16331;BME280;8275;48.206;16.340;2022-10-16T00:44:48;99461.28;;;19.10;59.78
16331;BME280;8275;48.206;16.340;2022-10-16T00:47:24;99460.97;;;19.12;59.75
16331;BME280;8275;48.206;16.340;2022-10-16T00:50:00;99463.75;;;19.12;59.62
16331;BME280;8275;48.206;16.340;2022-10-16T00:52:31;99467.88;;;19.14;59.64
16331;BME280;8275;48.206;16.340;2022-10-16T00:55:02;99467.34;;;19.12;59.44
16331;BME280;8275;48.206;16.340;2022-10-16T00:57:32;99474.03;;;19.11;59.31
16331;BME280;8275;48.206;16.340;2022-10-16T01:00:02;99474.34;;;19.10;59.38
16331;BME280;8275;48.206;16.340;2022-10-16T01:02:31;99464.34;;;19.09;59.32
16331;BME280;8275;48.206;16.340;2022-10-16T01:04:59;99461.91;;;19.07;59.34
16331;BME280;8275;48.206;16.340;2022-10-16T01:07:39;99461.47;;;19.00;59.12
16331;BME280;8275;48.206;16.340;2022-10-16T01:10:20;99467.94;;;18.96;59.17
16331;BME280;8275;48.206;16.340;2022-10-16T01:12:56;99468.53;;;18.92;59.21
16331;BME280;8275;48.206;16.340;2022-10-16T01:15:29;99463.13;;;18.87;59.03
16331;BME280;8275;48.206;16.340;2022-10-16T01:18:03;99459.91;;;18.80;59.13
16331;BME280;8275;48.206;16.340;2022-10-16T01:20:37;99465.75;;;18.79;59.18
16331;BME280;8275;48.206;16.340;2022-10-16T01:23:24;99468.66;;;18.74;59.25
16331;BME280;8275;48.206;16.340;2022-10-16T01:26:20;99469.31;;;18.66;59.09
16331;BME280;8275;48.206;16.340;2022-10-16T01:29:03;99467.47;;;18.61;59.17
16331;BME280;8275;48.206;16.340;2022-10-16T01:31:36;99467.25;;;18.58;59.07
16331;BME280;8275;48.206;16.340;2022-10-16T01:34:14;99470.13;;;18.53;59.32
16331;BME280;8275;48.206;16.340;2022-10-16T01:36:48;99471.53;;;18.50;59.36
16331;BME280;8275;48.206;16.340;2022-10-16T01:39:23;99470.19;;;18.48;59.38
16331;BME280;8275;48.206;16.340;2022-10-16T01:41:58;99462.72;;;18.48;59.47
16331;BME280;8275;48.206;16.340;2022-10-16T01:44:32;99466.81;;;18.51;59.78
16331;BME280;8275;48.206;16.340;2022-10-16T01:47:03;99468.69;;;18.55;59.71
16331;BME280;8275;48.206;16.340;2022-10-16T01:49:36;99465.28;;;18.58;59.90
16331;BME280;8275;48.206;16.340;2022-10-16T01:52:12;99469.94;;;18.63;59.84
16331;BME280;8275;48.206;16.340;2022-10-16T01:54:45;99463.19;;;18.69;59.83
16331;BME280;8275;48.206;16.340;2022-10-16T01:57:16;99465.03;;;18.73;59.66
16331;BME280;8275;48.206;16.340;2022-10-16T01:59:51;99471.41;;;18.74;59.67
16331;BME280;8275;48.206;16.340;2022-10-16T02:02:20;99470.78;;;18.77;59.52
16331;BME280;8275;48.206;16.340;2022-10-16T02:04:57;99468.84;;;18.77;59.81
16331;BME280;8275;48.206;16.340;2022-10-16T02:07:26;99480.13;;;18.81;59.66
16331;BME280;8275;48.206;16.340;2022-10-16T02:09:54;99472.03;;;18.84;59.79
16331;BME280;8275;48.206;16.340;2022-10-16T02:12:27;99476.47;;;18.85;59.58
16331;BME280;8275;48.206;16.340;2022-10-16T02:14:58;99469.78;;;18.86;59.55
16331;BME280;8275;48.206;16.340;2022-10-16T02:17:27;99480.56;;;18.88;59.63
16331;BME280;8275;48.206;16.340;2022-10-16T02:19:56;99475.03;;;18.88;59.53
16331;BME280;8275;48.206;16.340;2022-10-16T02:22:30;99477.78;;;18.88;59.45
16331;BME280;8275;48.206;16.340;2022-10-16T02:25:06;99486.75;;;18.85;59.18
16331;BME280;8275;48.206;16.340;2022-10-16T02:27:41;99480.97;;;18.81;59.29
16331;BME280;8275;48.206;16.340;2022-10-16T02:30:21;99476.06;;;18.78;59.41
16331;BME280;8275;48.206;16.340;2022-10-16T02:32:52;99482.41;;;18.79;59.49
16331;BME280;8275;48.206;16.340;2022-10-16T02:35:23;99483.03;;;18.76;59.49
16331;BME280;8275;48.206;16.340;2022-10-16T02:37:52;99483.84;;;18.76;59.26
16331;BME280;8275;48.206;16.340;2022-10-16T02:40:22;99490.00;;;18.73;59.23
16331;BME280;8275;48.206;16.340;2022-10-16T02:42:52;99488.66;;;18.71;59.17
16331;BME280;8275;48.206;16.340;2022-10-16T02:45:23;99495.66;;;18.68;59.13
16331;BME280;8275;48.206;16.340;2022-10-16T02:47:52;99502.84;;;18.69;59.20
16331;BME280;8275;48.206;16.340;2022-10-16T02:50:20;99505.31;;;18.71;59.27
16331;BME280;8275;48.206;16.340;2022-10-16T02:52:49;99501.13;;;18.73;59.23
16331;BME280;8275;48.206;16.340;2022-10-16T02:55:17;99494.41;;;18.74;59.36
16331;BME280;8275;48.206;16.340;2022-10-16T02:57:46;99489.69;;;18.75;59.17
16331;BME280;8275;48.206;16.340;2022-10-16T03:00:16;99492.78;;;18.73;59.09
16331;BME280;8275;48.206;16.340;2022-10-16T03:02:46;99492.78;;;18.73;59.04
16331;BME280;8275;48.206;16.340;2022-10-16T03:05:15;99491.13;;;18.72;59.16
16331;BME280;8275;48.206;16.340;2022-10-16T03:07:43;99490.00;;;18.73;59.07
16331;BME280;8275;48.206;16.340;2022-10-16T03:10:12;99491.97;;;18.73;59.03
16331;BME280;8275;48.206;16.340;2022-10-16T03:12:41;99489.78;;;18.70;59.04
16331;BME280;8275;48.206;16.340;2022-10-16T03:15:10;99493.47;;;18.65;58.92
16331;BME280;8275;48.206;16.340;2022-10-16T03:17:38;99499.66;;;18.62;58.89
16331;BME280;8275;48.206;16.340;2022-10-16T03:20:09;99502.19;;;18.59;58.97
16331;BME280;8275;48.206;16.340;2022-10-16T03:22:38;99509.69;;;18.58;58.96
16331;BME280;8275;48.206;16.340;2022-10-16T03:25:07;99503.94;;;18.55;58.89
16331;BME280;8275;48.206;16.340;2022-10-16T03:27:36;99505.66;;;18.51;58.82
16331;BME280;8275;48.206;16.340;2022-10-16T03:30:06;99509.91;;;18.43;59.04
16331;BME280;8275;48.206;16.340;2022-10-16T03:32:35;99503.94;;;18.36;58.69
16331;BME280;8275;48.206;16.340;2022-10-16T03:35:04;99510.13;;;18.28;58.63
16331;BME280;8275;48.206;16.340;2022-10-16T03:37:34;99518.56;;;18.23;58.86
16331;BME280;8275;48.206;16.340;2022-10-16T03:40:04;99516.44;;;18.15;58.77
16331;BME280;8275;48.206;16.340;2022-10-16T03:42:33;99507.09;;;18.11;58.90
16331;BME280;8275;48.206;16.340;2022-10-16T03:45:01;99517.41;;;18.05;59.00
16331;BME280;8275;48.206;16.340;2022-10-16T03:47:30;99519.44;;;18.00;58.96
16331;BME280;8275;48.206;16.340;2022-10-16T03:50:00;99530.59;;;17.95;58.89
16331;BME280;8275;48.206;16.340;2022-10-16T03:52:28;99534.28;;;17.90;58.90
16331;BME280;8275;48.206;16.340;2022-10-16T03:54:58;99539.88;;;17.85;59.20
16331;BME280;8275;48.206;16.340;2022-10-16T03:57:26;99543.22;;;17.82;58.99
16331;BME280;8275;48.206;16.340;2022-10-16T03:59:55;99546.88;;;17.78;59.08
16331;BME280;8275;48.206;16.340;2022-10-16T04:02:24;99547.50;;;17.75;59.15
16331;BME280;8275;48.206;16.340;2022-10-16T04:04:52;99549.19;;;17.71;59.06
16331;BME280;8275;48.206;16.340;2022-10-16T04:07:20;99545.06;;;17.68;59.28
16331;BME280;8275;48.206;16.340;2022-10-16T04:09:49;99544.03;;;17.64;59.35
16331;BME280;8275;48.206;16.340;2022-10-16T04:12:20;99539.63;;;17.63;59.36
16331;BME280;8275;48.206;16.340;2022-10-16T04:14:48;99537.94;;;17.62;59.34
16331;BME280;8275;48.206;16.340;2022-10-16T04:17:17;99530.78;;;17.61;59.47
16331;BME280;8275;48.206;16.340;2022-10-16T04:19:45;99539.69;;;17.58;59.49
16331;BME280;8275;48.206;16.340;2022-10-16T04:22:13;99547.47;;;17.56;59.42
16331;BME280;8275;48.206;16.340;2022-10-16T04:24:42;99544.97;;;17.54;59.52
16331;BME280;8275;48.206;16.340;2022-10-16T04:27:10;99549.69;;;17.54;59.35
16331;BME280;8275;48.206;16.340;2022-10-16T04:29:40;99549.97;;;17.52;59.65
16331;BME280;8275;48.206;16.340;2022-10-16T04:32:09;99543.59;;;17.52;59.66
16331;BME280;8275;48.206;16.340;2022-10-16T04:34:39;99547.50;;;17.51;59.64
16331;BME280;8275;48.206;16.340;2022-10-16T04:37:08;99552.75;;;17.52;59.77
16331;BME280;8275;48.206;16.340;2022-10-16T04:39:36;99551.63;;;17.53;59.81
16331;BME280;8275;48.206;16.340;2022-10-16T04:42:05;99549.41;;;17.56;59.85
16331;BME280;8275;48.206;16.340;2022-10-16T04:44:33;99540.50;;;17.59;59.85
16331;BME280;8275;48.206;16.340;2022-10-16T04:47:03;99549.56;;;17.64;59.99
16331;BME280;8275;48.206;16.340;2022-10-16T04:49:31;99551.44;;;17.69;60.15
16331;BME280;8275;48.206;16.340;2022-10-16T04:52:00;99557.75;;;17.74;60.01
16331;BME280;8275;48.206;16.340;2022-10-16T04:54:28;99560.75;;;17.78;59.82
16331;BME280;8275;48.206;16.340;2022-10-16T04:56:57;99555.47;;;17.81;60.02
16331;BME280;8275;48.206;16.340;2022-10-16T04:59:25;99565.41;;;17.82;60.03
16331;BME280;8275;48.206;16.340;2022-10-16T05:01:53;99572.59;;;17.83;59.73
16331;BME280;8275;48.206;16.340;2022-10-16T05:04:23;99570.34;;;17.85;59.82
16331;BME280;8275;48.206;16.340;2022-10-16T05:06:52;99567.59;;;17.85;59.88
16331;BME280;8275;48.206;16.340;2022-10-16T05:09:20;99573.97;;;17.86;59.84
16331;BME280;8275;48.206;16.340;2022-10-16T05:11:48;99568.13;;;17.87;59.79
16331;BME280;8275;48.206;16.340;2022-10-16T05:14:17;99570.88;;;17.87;59.86
16331;BME280;8275;48.206;16.340;2022-10-16T05:16:45;99564.50;;;17.87;59.62
16331;BME280;8275;48.206;16.340;2022-10-16T05:19:15;99576.94;;;17.89;59.79
16331;BME280;8275;48.206;16.340;2022-10-16T05:22:00;99579.72;;;17.89;59.75
16331;BME280;8275;48.206;16.340;2022-10-16T05:24:29;99590.53;;;17.91;59.75
16331;BME280;8275;48.206;16.340;2022-10-16T05:26:57;99591.06;;;17.93;59.73
16331;BME280;8275;48.206;16.340;2022-10-16T05:29:26;99593.00;;;17.92;59.66
16331;BME280;8275;48.206;16.340;2022-10-16T05:31:54;99595.19;;;17.95;59.65
16331;BME280;8275;48.206;16.340;2022-10-16T05:34:22;99587.97;;;17.94;59.61
16331;BME280;8275;48.206;16.340;2022-10-16T05:36:51;99585.22;;;17.94;59.79
16331;BME280;8275;48.206;16.340;2022-10-16T05:39:21;99590.75;;;17.94;59.68
16331;BME280;8275;48.206;16.340;2022-10-16T05:41:50;99589.66;;;17.95;59.64
16331;BME280;8275;48.206;16.340;2022-10-16T05:44:19;99597.66;;;17.97;59.83
16331;BME280;8275;48.206;16.340;2022-10-16T05:46:47;99606.19;;;18.00;59.95
16331;BME280;8275;48.206;16.340;2022-10-16T05:49:16;99603.97;;;18.02;59.70
16331;BME280;8275;48.206;16.340;2022-10-16T05:51:44;99610.03;;;18.04;59.78
16331;BME280;8275;48.206;16.340;2022-10-16T05:54:13;99614.16;;;18.07;59.71
16331;BME280;8275;48.206;16.340;2022-10-16T05:56:43;99615.81;;;18.08;59.66
16331;BME280;8275;48.206;16.340;2022-10-16T05:59:11;99616.31;;;18.10;59.72
16331;BME280;8275;48.206;16.340;2022-10-16T06:01:40;99631.53;;;18.12;59.68
16331;BME280;8275;48.206;16.340;2022-10-16T06:04:08;99640.13;;;18.16;59.71
16331;BME280;8275;48.206;16.340;2022-10-16T06:06:42;99637.28;;;18.21;59.49
16331;BME280;8275;48.206;16.340;2022-10-16T06:09:10;99645.81;;;18.24;59.44
16331;BME280;8275;48.206;16.340;2022-10-16T06:11:39;99639.16;;;18.26;59.52
16331;BME280;8275;48.206;16.340;2022-10-16T06:14:09;99642.72;;;18.26;59.39
16331;BME280;8275;48.206;16.340;2022-10-16T06:16:37;99637.44;;;18.30;59.59
16331;BME280;8275;48.206;16.340;2022-10-16T06:19:06;99642.91;;;18.35;59.59
16331;BME280;8275;48.206;16.340;2022-10-16T06:21:35;99650.03;;;18.41;59.46
16331;BME280;8275;48.206;16.340;2022-10-16T06:24:03;99656.63;;;18.45;59.41
16331;BME280;8275;48.206;16.340;2022-10-16T06:26:32;99659.91;;;18.52;59.42
16331;BME280;8275;48.206;16.340;2022-10-16T06:29:00;99667.31;;;18.56;59.15
16331;BME280;8275;48.206;16.340;2022-10-16T06:31:31;99671.97;;;18.61;59.17
16331;BME280;8275;48.206;16.340;2022-10-16T06:34:00;99675.72;;;18.70;59.28
16331;BME280;8275;48.206;16.340;2022-10-16T06:36:29;99676.81;;;18.74;59.08
16331;BME280;8275;48.206;16.340;2022-10-16T06:38:57;99677.53;;;18.79;59.00
16331;BME280;8275;48.206;16.340;2022-10-16T06:41:25;99678.81;;;18.87;58.86
16331;BME280;8275;48.206;16.340;2022-10-16T06:43:54;99673.72;;;18.94;58.83
16331;BME280;8275;48.206;16.340;2022-10-16T06:46:25;99671.13;;;18.98;58.81
16331;BME280;8275;48.206;16.340;2022-10-16T06:48:55;99676.41;;;18.99;58.60
16331;BME280;8275;48.206;16.340;2022-10-16T06:51:24;99682.25;;;18.98;58.42
16331;BME280;8275;48.206;16.340;2022-10-16T06:53:54;99688.94;;;18.97;58.52
16331;BME280;8275;48.206;16.340;2022-10-16T06:56:32;99693.34;;;18.98;58.60
16331;BME280;8275;48.206;16.340;2022-10-16T06:59:01;99709.72;;;18.99;58.43
16331;BME280;8275;48.206;16.340;2022-10-16T07:01:30;99707.75;;;19.00;58.42
16331;BME280;8275;48.206;16.340;2022-10-16T07:04:01;99713.63;;;18.98;58.38
16331;BME280;8275;48.206;16.340;2022-10-16T07:06:33;99720.28;;;18.97;58.30
16331;BME280;8275;48.206;16.340;2022-10-16T07:09:06;99709.19;;;18.97;58.42
16331;BME280;8275;48.206;16.340;2022-10-16T07:11:37;99714.13;;;19.00;58.41
16331;BME280;8275;48.206;16.340;2022-10-16T07:14:12;99713.25;;;19.05;58.49
16331;BME280;8275;48.206;16.340;2022-10-16T07:16:43;99719.25;;;19.12;58.59
16331;BME280;8275;48.206;16.340;2022-10-16T07:19:13;99716.97;;;19.14;58.38
16331;BME280;8275;48.206;16.340;2022-10-16T07:21:44;99723.28;;;19.19;58.15
16331;BME280;8275;48.206;16.340;2022-10-16T07:24:15;99719.63;;;19.24;58.27
16331;BME280;8275;48.206;16.340;2022-10-16T07:26:45;99717.56;;;19.29;58.30
16331;BME280;8275;48.206;16.340;2022-10-16T07:29:15;99713.63;;;19.35;58.27
16331;BME280;8275;48.206;16.340;2022-10-16T07:31:44;99720.13;;;19.44;58.16
16331;BME280;8275;48.206;16.340;2022-10-16T07:34:16;99713.34;;;19.50;58.15
16331;BME280;8275;48.206;16.340;2022-10-16T07:36:48;99725.41;;;19.59;58.12
16331;BME280;8275;48.206;16.340;2022-10-16T07:39:17;99728.88;;;19.70;57.80
16331;BME280;8275;48.206;16.340;2022-10-16T07:41:46;99726.28;;;19.74;57.50
16331;BME280;8275;48.206;16.340;2022-10-16T07:44:15;99719.38;;;19.71;57.50
16331;BME280;8275;48.206;16.340;2022-10-16T07:46:44;99717.50;;;19.67;57.38
16331;BME280;8275;48.206;16.340;2022-10-16T07:49:14;99724.81;;;19.63;57.22
16331;BME280;8275;48.206;16.340;2022-10-16T07:51:42;99740.97;;;19.60;57.03
16331;BME280;8275;48.206;16.340;2022-10-16T07:54:11;99737.38;;;19.60;57.12
16331;BME280;8275;48.206;16.340;2022-10-16T07:56:39;99739.63;;;19.58;57.13
16331;BME280;8275;48.206;16.340;2022-10-16T07:59:10;99737.97;;;19.57;57.36
16331;BME280;8275;48.206;16.340;2022-10-16T08:01:39;99741.81;;;19.61;57.29
16331;BME280;8275;48.206;16.340;2022-10-16T08:04:09;99746.16;;;19.67;57.18
16331;BME280;8275;48.206;16.340;2022-10-16T08:06:40;99746.88;;;19.73;56.88
16331;BME280;8275;48.206;16.340;2022-10-16T08:09:09;99743.72;;;19.79;57.14
16331;BME280;8275;48.206;16.340;2022-10-16T08:11:37;99749.19;;;19.84;57.04
16331;BME280;8275;48.206;16.340;2022-10-16T08:14:06;99757.72;;;19.88;57.13
16331;BME280;8275;48.206;16.340;2022-10-16T08:16:34;99753.50;;;19.90;57.09
16331;BME280;8275;48.206;16.340;2022-10-16T08:19:03;99758.16;;;19.95;57.04
16331;BME280;8275;48.206;16.340;2022-10-16T08:21:31;99767.75;;;20.02;57.01
16331;BME280;8275;48.206;16.340;2022-10-16T08:24:01;99770.44;;;20.07;57.07
16331;BME280;8275;48.206;16.340;2022-10-16T08:26:30;99763.34;;;20.15;57.07
16331;BME280;8275;48.206;16.340;2022-10-16T08:28:58;99768.53;;;20.21;56.77
16331;BME280;8275;48.206;16.340;2022-10-16T08:31:27;99775.16;;;20.25;56.92
16331;BME280;8275;48.206;16.340;2022-10-16T08:33:55;99769.50;;;20.31;56.70
16331;BME280;8275;48.206;16.340;2022-10-16T08:36:23;99767.41;;;20.36;56.94
16331;BME280;8275;48.206;16.340;2022-10-16T08:38:52;99772.28;;;20.44;56.58
16331;BME280;8275;48.206;16.340;2022-10-16T08:45:26;99767.81;;;20.57;56.84
16331;BME280;8275;48.206;16.340;2022-10-16T08:48:11;99766.97;;;20.70;56.65
16331;BME280;8275;48.206;16.340;2022-10-16T08:50:42;99764.72;;;20.85;56.75
16331;BME280;8275;48.206;16.340;2022-10-16T08:53:18;99763.34;;;20.96;56.20
16331;BME280;8275;48.206;16.340;2022-10-16T08:55:51;99764.28;;;21.06;55.84
16331;BME280;8275;48.206;16.340;2022-10-16T08:58:27;99770.59;;;21.11;55.97
16331;BME280;8275;48.206;16.340;2022-10-16T09:00:58;99773.72;;;21.18;55.72
16331;BME280;8275;48.206;16.340;2022-10-16T09:03:41;99770.53;;;21.25;55.38
16331;BME280;8275;48.206;16.340;2022-10-16T09:06:27;99776.19;;;21.33;55.52
16331;BME280;8275;48.206;16.340;2022-10-16T09:09:20;99771.19;;;21.44;55.38
16331;BME280;8275;48.206;16.340;2022-10-16T09:11:59;99780.44;;;21.53;54.99
16331;BME280;8275;48.206;16.340;2022-10-16T09:14:50;99784.38;;;21.52;54.37
16331;BME280;8275;48.206;16.340;2022-10-16T09:17:30;99780.94;;;21.55;54.53
16331;BME280;8275;48.206;16.340;2022-10-16T09:20:29;99779.19;;;21.59;54.57
16331;BME280;8275;48.206;16.340;2022-10-16T09:23:14;99786.09;;;21.61;54.51
16331;BME280;8275;48.206;16.340;2022-10-16T09:25:46;99789.38;;;21.63;54.29
16331;BME280;8275;48.206;16.340;2022-10-16T09:28:17;99792.19;;;21.63;54.41
16331;BME280;8275;48.206;16.340;2022-10-16T09:30:48;99790.84;;;21.61;54.44
16331;BME280;8275;48.206;16.340;2022-10-16T09:33:20;99801.66;;;21.62;53.83
16331;BME280;8275;48.206;16.340;2022-10-16T09:35:51;99801.22;;;21.69;54.12
16331;BME280;8275;48.206;16.340;2022-10-16T09:38:27;99795.53;;;21.74;54.14
16331;BME280;8275;48.206;16.340;2022-10-16T09:40:58;99805.72;;;21.79;53.75
16331;BME280;8275;48.206;16.340;2022-10-16T09:43:35;99807.88;;;21.82;53.64
16331;BME280;8275;48.206;16.340;2022-10-16T09:46:24;99821.94;;;21.90;53.82
16331;BME280;8275;48.206;16.340;2022-10-16T09:48:57;99819.88;;;22.04;53.37
16331;BME280;8275;48.206;16.340;2022-10-16T09:51:29;99811.25;;;22.14;53.58
16331;BME280;8275;48.206;16.340;2022-10-16T09:54:00;99809.50;;;22.27;53.18
16331;BME280;8275;48.206;16.340;2022-10-16T09:56:31;99808.41;;;22.36;53.04
16331;BME280;8275;48.206;16.340;2022-10-16T09:59:08;99810.88;;;22.38;52.76
16331;BME280;8275;48.206;16.340;2022-10-16T10:01:40;99809.28;;;22.46;52.84
16331;BME280;8275;48.206;16.340;2022-10-16T10:04:10;99815.91;;;22.58;52.77
16331;BME280;8275;48.206;16.340;2022-10-16T10:06:43;99818.94;;;22.70;52.30
16331;BME280;8275;48.206;16.340;2022-10-16T10:09:20;99816.84;;;22.76;52.07
16331;BME280;8275;48.206;16.340;2022-10-16T10:11:52;99815.53;;;22.82;51.81
16331;BME280;8275;48.206;16.340;2022-10-16T10:14:28;99813.41;;;22.87;51.39
16331;BME280;8275;48.206;16.340;2022-10-16T10:17:14;99814.75;;;22.90;51.80
16331;BME280;8275;48.206;16.340;2022-10-16T10:19:49;99814.59;;;22.95;51.90
16331;BME280;8275;48.206;16.340;2022-10-16T10:22:26;99810.16;;;22.94;51.34
16331;BME280;8275;48.206;16.340;2022-10-16T10:25:39;99818.66;;;22.80;51.71
16331;BME280;8275;48.206;16.340;2022-10-16T10:28:44;99826.69;;;22.82;51.98
16331;BME280;8275;48.206;16.340;2022-10-16T10:31:20;99826.75;;;22.90;51.83
16331;BME280;8275;48.206;16.340;2022-10-16T10:33:59;99818.06;;;23.00;51.66
16331;BME280;8275;48.206;16.340;2022-10-16T10:36:35;99815.13;;;23.14;51.48
16331;BME280;8275;48.206;16.340;2022-10-16T10:39:08;99817.94;;;23.23;51.36
16331;BME280;8275;48.206;16.340;2022-10-16T10:42:20;99815.88;;;23.37;51.62
16331;BME280;8275;48.206;16.340;2022-10-16T10:45:11;99815.38;;;23.52;51.20
16331;BME280;8275;48.206;16.340;2022-10-16T10:47:57;99812.59;;;23.69;51.21
16331;BME280;8275;48.206;16.340;2022-10-16T10:50:36;99811.09;;;23.80;50.73
16331;BME280;8275;48.206;16.340;2022-10-16T10:53:18;99807.63;;;23.92;50.16
16331;BME280;8275;48.206;16.340;2022-10-16T10:55:57;99805.50;;;24.06;50.21
16331;BME280;8275;48.206;16.340;2022-10-16T10:58:57;99798.22;;;24.22;50.17
16331;BME280;8275;48.206;16.340;2022-10-16T11:01:35;99804.59;;;24.31;49.90
16331;BME280;8275;48.206;16.340;2022-10-16T11:04:35;99797.53;;;24.33;49.79
16331;BME280;8275;48.206;16.340;2022-10-16T11:07:15;99789.22;;;24.46;49.70
16331;BME280;8275;48.206;16.340;2022-10-16T11:09:49;99790.31;;;24.62;49.16
16331;BME280;8275;48.206;16.340;2022-10-16T11:12:22;99786.78;;;24.82;48.85
16331;BME280;8275;48.206;16.340;2022-10-16T11:14:58;99780.41;;;25.02;48.46
16331;BME280;8275;48.206;16.340;2022-10-16T11:17:34;99780.06;;;25.24;47.99
16331;BME280;8275;48.206;16.340;2022-10-16T11:20:13;99776.63;;;25.48;47.67
16331;BME280;8275;48.206;16.340;2022-10-16T11:22:48;99785.22;;;25.84;47.37
16331;BME280;8275;48.206;16.340;2022-10-16T11:25:22;99780.78;;;26.16;46.93
16331;BME280;8275;48.206;16.340;2022-10-16T11:27:56;99786.22;;;26.33;46.72
16331;BME280;8275;48.206;16.340;2022-10-16T11:30:28;99776.63;;;26.46;45.71
16331;BME280;8275;48.206;16.340;2022-10-16T11:33:13;99771.75;;;26.67;46.26
16331;BME280;8275;48.206;16.340;2022-10-16T11:35:52;99778.28;;;27.20;45.71
16331;BME280;8275;48.206;16.340;2022-10-16T11:38:28;99768.25;;;27.58;45.14
16331;BME280;8275;48.206;16.340;2022-10-16T11:41:03;99773.63;;;28.03;44.31
16331;BME280;8275;48.206;16.340;2022-10-16T11:43:41;99771.16;;;28.61;43.81
16331;BME280;8275;48.206;16.340;2022-10-16T11:46:16;99761.38;;;29.05;42.97
16331;BME280;8275;48.206;16.340;2022-10-16T11:48:50;99759.59;;;29.32;42.54
16331;BME280;8275;48.206;16.340;2022-10-16T11:51:28;99758.66;;;29.43;42.07
16331;BME280;8275;48.206;16.340;2022-10-16T11:54:04;99757.91;;;29.46;41.25
16331;BME280;8275;48.206;16.340;2022-10-16T11:56:38;99758.22;;;29.41;41.07
16331;BME280;8275;48.206;16.340;2022-10-16T11:59:16;99763.53;;;29.27;41.11
16331;BME280;8275;48.206;16.340;2022-10-16T12:01:50;99766.81;;;29.13;40.69
16331;BME280;8275;48.206;16.340;2022-10-16T12:04:25;99761.91;;;29.26;40.42
16331;BME280;8275;48.206;16.340;2022-10-16T12:07:05;99762.66;;;29.61;40.71
16331;BME280;8275;48.206;16.340;2022-10-16T12:09:39;99764.16;;;30.13;40.19
16331;BME280;8275;48.206;16.340;2022-10-16T12:12:25;99759.75;;;30.57;40.04
16331;BME280;8275;48.206;16.340;2022-10-16T12:15:15;99760.66;;;31.10;39.28
16331;BME280;8275;48.206;16.340;2022-10-16T12:18:19;99756.63;;;31.67;39.03
16331;BME280;8275;48.206;16.340;2022-10-16T12:20:55;99753.22;;;31.84;37.79
16331;BME280;8275;48.206;16.340;2022-10-16T12:23:27;99749.75;;;31.98;37.48
16331;BME280;8275;48.206;16.340;2022-10-16T12:25:59;99740.81;;;32.32;37.20
16331;BME280;8275;48.206;16.340;2022-10-16T12:28:31;99751.72;;;32.71;36.37
16331;BME280;8275;48.206;16.340;2022-10-16T12:31:04;99745.94;;;33.07;36.15
16331;BME280;8275;48.206;16.340;2022-10-16T12:33:35;99747.41;;;33.45;35.45
16331;BME280;8275;48.206;16.340;2022-10-16T12:36:09;99743.44;;;33.57;34.91
16331;BME280;8275;48.206;16.340;2022-10-16T12:38:47;99746.69;;;33.62;34.83
16331;BME280;8275;48.206;16.340;2022-10-16T12:41:27;99742.22;;;33.61;35.17
16331;BME280;8275;48.206;16.340;2022-10-16T12:43:57;99753.16;;;33.56;34.55
16331;BME280;8275;48.206;16.340;2022-10-16T12:46:38;99756.47;;;33.72;34.55
16331;BME280;8275;48.206;16.340;2022-10-16T12:49:22;99746.53;;;34.17;34.60
16331;BME280;8275;48.206;16.340;2022-10-16T12:51:52;99751.84;;;34.39;33.59
16331;BME280;8275;48.206;16.340;2022-10-16T12:54:27;99755.88;;;34.38;33.14
16331;BME280;8275;48.206;16.340;2022-10-16T12:57:30;99757.97;;;34.55;33.49
16331;BME280;8275;48.206;16.340;2022-10-16T13:00:13;99756.75;;;34.88;32.79
16331;BME280;8275;48.206;16.340;2022-10-16T13:06:05;99757.91;;;35.37;32.40
16331;BME280;8275;48.206;16.340;2022-10-16T13:09:01;99752.16;;;35.68;31.95
16331;BME280;8275;48.206;16.340;2022-10-16T13:11:47;99754.03;;;36.07;31.42
16331;BME280;8275;48.206;16.340;2022-10-16T13:14:44;99751.50;;;36.23;31.37
16331;BME280;8275;48.206;16.340;2022-10-16T13:17:22;99756.31;;;36.36;30.20
16331;BME280;8275;48.206;16.340;2022-10-16T13:20:06;99750.72;;;36.19;30.52
16331;BME280;8275;48.206;16.340;2022-10-16T13:22:47;99752.59;;;35.63;30.68
16331;BME280;8275;48.206;16.340;2022-10-16T13:25:34;99756.34;;;34.86;30.71
16331;BME280;8275;48.206;16.340;2022-10-16T13:28:10;99756.69;;;34.21;31.52
16331;BME280;8275;48.206;16.340;2022-10-16T13:30:42;99760.47;;;33.57;31.81
16331;BME280;8275;48.206;16.340;2022-10-16T13:33:17;99767.34;;;32.98;32.16
16331;BME280;8275;48.206;16.340;2022-10-16T13:35:51;99772.09;;;32.43;32.49
16331;BME280;8275;48.206;16.340;2022-10-16T13:38:22;99776.81;;;31.95;33.21